METAR Data
IDs: Format: Raw Decoded Include TAF

Data at: 1354 UTC 20 Oct 2018

SKBO 201330Z VRB02KT 9999 FEW020 SCT080 17/10 A3032